Medford, OR (97501)

2:32 PM PDT on September 18, 2014 (GMT -0700)
MesoWest | Change Station
CLOSE
Current Station
Personal Weather Station
Location: Medford, OR
Elevation: 1345 ft
Nearby Weather Stations

Elev 1345 ft 42.34 °N, 122.91 °W | Updated 4 days ago

Rain
Rain
77 °F
Feels Like 77 °F
N
5
Wind Variable Wind from WNW
Gusts 8 mph

Today
High -- | Low -- °F
--% Chance of Precip.
Yesterday
High -- | Low -- °F
Precip. -- in
6:54 AM 7:15 PM
Waning Crescent, 24% visible
Pressure 29.81 in
Visibility 10.0 miles
Clouds Scattered Clouds 7000 ft
Dew Point 54 °F
Humidity 42%
Rainfall -999.00 in
Snow Depth 0 in , 0 in , 0 in
UV 6 out of 12
Pollen 2.70 out of 12
Air Quality Not available.
Flu Activity Not available.
METAR KMFR 182053Z 35007KT 10SM SCT070 27/11 A2984 RMK AO2 SLP095 T02670111 56009

More Conditions Fewer Conditions

Pressure 29.81 in
Visibility 10.0 miles
Clouds Scattered Clouds 7000 ft
Dew Point 54 °F
Humidity 42%
Rainfall -999.00 in
Snow Depth 0 in , 0 in , 0 in
UV 6 out of 12
Pollen 2.70 out of 12
Air Quality Not available.
Flu Activity Not available.
METAR KMFR 182053Z 35007KT 10SM SCT070 27/11 A2984 RMK AO2 SLP095 T02670111 56009

More Conditions Fewer Conditions

10-Day Weather Forecast

Almanac

Astronomy

Sep. 18, 2014 Rise Set
Actual Time 6:54 AM PDT 7:15 PM PDT
Civil Twilight 6:26 AM PDT 7:43 PM PDT
Nautical Twilight 5:53 AM PDT 8:16 PM PDT
Astronomical Twilight 5:19 AM PDT 8:50 PM PDT
Moon 1:47 AM PDT 4:14 PM PDT
Length of Visible Light 13h 17m
Length of Day
12h 20m
Tomorrow will be 2m 50s shorter.
Waning Crescent, 24% of the Moon is Illuminated
Today
Waning Crescent
Sep 24
New
Oct 1
First Quarter
Oct 8
Full
Oct 15
Last Quarter

Today's Extremes

State Highs State Lows

Community

WunderPhotos

Upload Photos

1,754,452 photos uploaded!

WunderBlogs® & News

Nearby

Snow Depth

Station Depth Elevation
Mud Ridge 0 in 3800 ft
Blazed Alder 0 in 3650 ft
Peavine Ridge 0 in 3500 ft
Salt Creek Falls 0 in 4000 ft
Bourne 0 in 5800 ft

Earthquake Activity

City Distance Mag. Time & Date
No recent earthquake activity has been reported nearby.
Minimum magnitude displayed is 2.5.

Coastal Water Temperatures

Place Temperature
No Stations Reporting

Nearby Weather Stations